sensor_id;sensor_type;location;lat;lon;timestamp;P1;durP1;ratioP1;P2;durP2;ratioP2
26407;SDS011;14583;43.604;1.364;2023-05-09T00:00:15;9.20;;;4.15;;
26407;SDS011;14583;43.604;1.364;2023-05-09T00:02:41;9.77;;;4.65;;
26407;SDS011;14583;43.604;1.364;2023-05-09T00:05:09;11.07;;;4.78;;
26407;SDS011;14583;43.604;1.364;2023-05-09T00:07:35;8.60;;;4.03;;
26407;SDS011;14583;43.604;1.364;2023-05-09T00:10:01;9.05;;;4.30;;
26407;SDS011;14583;43.604;1.364;2023-05-09T00:12:28;8.15;;;4.28;;
26407;SDS011;14583;43.604;1.364;2023-05-09T00:14:53;6.32;;;3.92;;
26407;SDS011;14583;43.604;1.364;2023-05-09T00:17:21;8.77;;;4.20;;
26407;SDS011;14583;43.604;1.364;2023-05-09T00:19:47;7.82;;;3.90;;
26407;SDS011;14583;43.604;1.364;2023-05-09T00:22:15;8.27;;;4.13;;
26407;SDS011;14583;43.604;1.364;2023-05-09T00:24:41;9.27;;;3.63;;
26407;SDS011;14583;43.604;1.364;2023-05-09T00:27:07;12.75;;;4.75;;
26407;SDS011;14583;43.604;1.364;2023-05-09T00:29:34;11.23;;;4.63;;
26407;SDS011;14583;43.604;1.364;2023-05-09T00:31:59;7.07;;;4.05;;
26407;SDS011;14583;43.604;1.364;2023-05-09T00:34:25;7.40;;;4.47;;
26407;SDS011;14583;43.604;1.364;2023-05-09T00:36:50;11.68;;;4.70;;
26407;SDS011;14583;43.604;1.364;2023-05-09T00:39:16;13.15;;;4.82;;
26407;SDS011;14583;43.604;1.364;2023-05-09T00:41:42;16.67;;;5.32;;
26407;SDS011;14583;43.604;1.364;2023-05-09T00:44:07;10.90;;;4.82;;
26407;SDS011;14583;43.604;1.364;2023-05-09T00:46:33;10.02;;;4.45;;
26407;SDS011;14583;43.604;1.364;2023-05-09T00:48:59;11.43;;;4.45;;
26407;SDS011;14583;43.604;1.364;2023-05-09T00:51:25;10.30;;;4.45;;
26407;SDS011;14583;43.604;1.364;2023-05-09T00:53:52;12.50;;;4.82;;
26407;SDS011;14583;43.604;1.364;2023-05-09T00:56:18;8.80;;;4.28;;
26407;SDS011;14583;43.604;1.364;2023-05-09T00:58:44;10.73;;;4.90;;
26407;SDS011;14583;43.604;1.364;2023-05-09T01:01:09;11.05;;;4.25;;
26407;SDS011;14583;43.604;1.364;2023-05-09T01:03:37;7.18;;;3.63;;
26407;SDS011;14583;43.604;1.364;2023-05-09T01:06:11;12.13;;;4.90;;
26407;SDS011;14583;43.604;1.364;2023-05-09T01:09:00;7.60;;;3.97;;
26407;SDS011;14583;43.604;1.364;2023-05-09T01:11:33;8.35;;;3.55;;
26407;SDS011;14583;43.604;1.364;2023-05-09T01:16:58;13.45;;;4.63;;
26407;SDS011;14583;43.604;1.364;2023-05-09T01:22:14;7.38;;;4.10;;
26407;SDS011;14583;43.604;1.364;2023-05-09T01:27:27;9.98;;;4.30;;
26407;SDS011;14583;43.604;1.364;2023-05-09T01:30:03;7.43;;;3.90;;
26407;SDS011;14583;43.604;1.364;2023-05-09T01:32:31;8.02;;;4.22;;
26407;SDS011;14583;43.604;1.364;2023-05-09T01:34:59;7.70;;;3.92;;
26407;SDS011;14583;43.604;1.364;2023-05-09T01:37:30;10.13;;;4.15;;
26407;SDS011;14583;43.604;1.364;2023-05-09T01:40:09;8.13;;;4.28;;
26407;SDS011;14583;43.604;1.364;2023-05-09T01:42:44;7.38;;;4.25;;
26407;SDS011;14583;43.604;1.364;2023-05-09T01:45:16;13.15;;;4.45;;
26407;SDS011;14583;43.604;1.364;2023-05-09T01:47:43;12.15;;;4.18;;
26407;SDS011;14583;43.604;1.364;2023-05-09T01:50:11;9.93;;;3.53;;
26407;SDS011;14583;43.604;1.364;2023-05-09T01:52:37;16.17;;;4.82;;
26407;SDS011;14583;43.604;1.364;2023-05-09T01:55:06;9.70;;;4.20;;
26407;SDS011;14583;43.604;1.364;2023-05-09T01:57:33;8.73;;;4.32;;
26407;SDS011;14583;43.604;1.364;2023-05-09T02:00:00;10.20;;;4.18;;
26407;SDS011;14583;43.604;1.364;2023-05-09T02:02:26;9.00;;;4.00;;
26407;SDS011;14583;43.604;1.364;2023-05-09T02:04:55;7.97;;;4.10;;
26407;SDS011;14583;43.604;1.364;2023-05-09T02:07:22;9.13;;;4.32;;
26407;SDS011;14583;43.604;1.364;2023-05-09T02:09:48;10.57;;;4.50;;
26407;SDS011;14583;43.604;1.364;2023-05-09T02:12:17;10.18;;;4.80;;
26407;SDS011;14583;43.604;1.364;2023-05-09T02:14:43;10.88;;;4.18;;
26407;SDS011;14583;43.604;1.364;2023-05-09T02:17:09;13.48;;;4.25;;
26407;SDS011;14583;43.604;1.364;2023-05-09T02:19:40;10.90;;;4.80;;
26407;SDS011;14583;43.604;1.364;2023-05-09T02:22:07;11.90;;;4.47;;
26407;SDS011;14583;43.604;1.364;2023-05-09T02:24:33;15.88;;;4.78;;
26407;SDS011;14583;43.604;1.364;2023-05-09T02:27:00;12.70;;;4.60;;
26407;SDS011;14583;43.604;1.364;2023-05-09T02:29:28;10.57;;;4.35;;
26407;SDS011;14583;43.604;1.364;2023-05-09T02:32:04;13.13;;;4.35;;
26407;SDS011;14583;43.604;1.364;2023-05-09T02:34:36;7.93;;;4.43;;
26407;SDS011;14583;43.604;1.364;2023-05-09T02:37:03;9.35;;;4.57;;
26407;SDS011;14583;43.604;1.364;2023-05-09T02:39:29;8.85;;;4.28;;
26407;SDS011;14583;43.604;1.364;2023-05-09T02:41:56;11.45;;;4.45;;
26407;SDS011;14583;43.604;1.364;2023-05-09T02:44:25;9.35;;;4.55;;
26407;SDS011;14583;43.604;1.364;2023-05-09T02:46:51;12.25;;;4.65;;
26407;SDS011;14583;43.604;1.364;2023-05-09T02:49:16;10.65;;;3.95;;
26407;SDS011;14583;43.604;1.364;2023-05-09T02:51:42;12.48;;;4.45;;
26407;SDS011;14583;43.604;1.364;2023-05-09T02:54:08;8.60;;;4.15;;
26407;SDS011;14583;43.604;1.364;2023-05-09T02:56:33;12.93;;;4.30;;
26407;SDS011;14583;43.604;1.364;2023-05-09T02:58:59;9.68;;;4.22;;
26407;SDS011;14583;43.604;1.364;2023-05-09T03:01:24;13.85;;;4.53;;
26407;SDS011;14583;43.604;1.364;2023-05-09T03:03:50;17.60;;;5.35;;
26407;SDS011;14583;43.604;1.364;2023-05-09T03:06:16;13.18;;;4.82;;
26407;SDS011;14583;43.604;1.364;2023-05-09T03:08:41;11.77;;;3.95;;
26407;SDS011;14583;43.604;1.364;2023-05-09T03:11:07;10.85;;;4.43;;
26407;SDS011;14583;43.604;1.364;2023-05-09T03:13:33;10.70;;;4.80;;
26407;SDS011;14583;43.604;1.364;2023-05-09T03:15:58;14.30;;;4.55;;
26407;SDS011;14583;43.604;1.364;2023-05-09T03:18:24;9.38;;;4.45;;
26407;SDS011;14583;43.604;1.364;2023-05-09T03:20:50;10.25;;;4.18;;
26407;SDS011;14583;43.604;1.364;2023-05-09T03:23:16;11.65;;;4.78;;
26407;SDS011;14583;43.604;1.364;2023-05-09T03:25:42;12.65;;;3.88;;
26407;SDS011;14583;43.604;1.364;2023-05-09T03:28:07;12.77;;;4.28;;
26407;SDS011;14583;43.604;1.364;2023-05-09T03:30:33;7.05;;;4.32;;
26407;SDS011;14583;43.604;1.364;2023-05-09T03:32:58;10.95;;;4.10;;
26407;SDS011;14583;43.604;1.364;2023-05-09T03:35:24;13.27;;;3.83;;
26407;SDS011;14583;43.604;1.364;2023-05-09T03:37:50;13.90;;;3.53;;
26407;SDS011;14583;43.604;1.364;2023-05-09T03:40:15;10.52;;;4.03;;
26407;SDS011;14583;43.604;1.364;2023-05-09T03:42:41;6.72;;;3.60;;
26407;SDS011;14583;43.604;1.364;2023-05-09T03:45:07;9.95;;;4.10;;
26407;SDS011;14583;43.604;1.364;2023-05-09T03:47:33;8.02;;;3.63;;
26407;SDS011;14583;43.604;1.364;2023-05-09T03:49:58;8.82;;;4.18;;
26407;SDS011;14583;43.604;1.364;2023-05-09T03:52:24;7.90;;;3.45;;
26407;SDS011;14583;43.604;1.364;2023-05-09T03:54:50;10.68;;;3.70;;
26407;SDS011;14583;43.604;1.364;2023-05-09T03:57:15;9.52;;;3.95;;
26407;SDS011;14583;43.604;1.364;2023-05-09T03:59:41;13.48;;;3.72;;
26407;SDS011;14583;43.604;1.364;2023-05-09T04:02:06;10.23;;;3.28;;
26407;SDS011;14583;43.604;1.364;2023-05-09T04:04:32;10.77;;;3.17;;
26407;SDS011;14583;43.604;1.364;2023-05-09T04:06:58;13.43;;;4.43;;
26407;SDS011;14583;43.604;1.364;2023-05-09T04:09:23;14.10;;;4.07;;
26407;SDS011;14583;43.604;1.364;2023-05-09T04:11:49;11.10;;;3.58;;
26407;SDS011;14583;43.604;1.364;2023-05-09T04:14:15;11.75;;;4.20;;
26407;SDS011;14583;43.604;1.364;2023-05-09T04:16:40;8.88;;;3.78;;
26407;SDS011;14583;43.604;1.364;2023-05-09T04:19:06;15.63;;;4.13;;
26407;SDS011;14583;43.604;1.364;2023-05-09T04:21:32;9.73;;;3.97;;
26407;SDS011;14583;43.604;1.364;2023-05-09T04:23:57;13.50;;;3.75;;
26407;SDS011;14583;43.604;1.364;2023-05-09T04:26:23;9.77;;;3.78;;
26407;SDS011;14583;43.604;1.364;2023-05-09T04:28:49;10.68;;;4.07;;
26407;SDS011;14583;43.604;1.364;2023-05-09T04:31:16;15.10;;;4.18;;
26407;SDS011;14583;43.604;1.364;2023-05-09T04:33:43;11.80;;;4.07;;
26407;SDS011;14583;43.604;1.364;2023-05-09T04:36:09;8.77;;;4.03;;
26407;SDS011;14583;43.604;1.364;2023-05-09T04:38:35;9.85;;;3.85;;
26407;SDS011;14583;43.604;1.364;2023-05-09T04:41:00;12.38;;;3.88;;
26407;SDS011;14583;43.604;1.364;2023-05-09T04:43:26;8.65;;;4.40;;
26407;SDS011;14583;43.604;1.364;2023-05-09T04:45:52;9.80;;;3.80;;
26407;SDS011;14583;43.604;1.364;2023-05-09T04:48:18;16.00;;;3.78;;
26407;SDS011;14583;43.604;1.364;2023-05-09T04:50:43;11.38;;;3.95;;
26407;SDS011;14583;43.604;1.364;2023-05-09T04:53:12;13.20;;;4.28;;
26407;SDS011;14583;43.604;1.364;2023-05-09T04:55:38;13.50;;;4.03;;
26407;SDS011;14583;43.604;1.364;2023-05-09T04:58:03;11.30;;;4.10;;
26407;SDS011;14583;43.604;1.364;2023-05-09T05:00:29;15.88;;;4.07;;
26407;SDS011;14583;43.604;1.364;2023-05-09T05:02:55;16.80;;;4.10;;
26407;SDS011;14583;43.604;1.364;2023-05-09T05:05:20;12.57;;;3.40;;
26407;SDS011;14583;43.604;1.364;2023-05-09T05:07:46;19.40;;;4.32;;
26407;SDS011;14583;43.604;1.364;2023-05-09T05:10:12;15.48;;;4.50;;
26407;SDS011;14583;43.604;1.364;2023-05-09T05:12:37;9.32;;;4.15;;
26407;SDS011;14583;43.604;1.364;2023-05-09T05:15:03;9.73;;;3.55;;
26407;SDS011;14583;43.604;1.364;2023-05-09T05:17:29;16.95;;;4.15;;
26407;SDS011;14583;43.604;1.364;2023-05-09T05:19:55;11.65;;;4.28;;
26407;SDS011;14583;43.604;1.364;2023-05-09T05:22:21;11.23;;;3.83;;
26407;SDS011;14583;43.604;1.364;2023-05-09T05:24:47;13.23;;;4.20;;
26407;SDS011;14583;43.604;1.364;2023-05-09T05:27:12;13.60;;;4.68;;
26407;SDS011;14583;43.604;1.364;2023-05-09T05:29:38;9.93;;;4.25;;
26407;SDS011;14583;43.604;1.364;2023-05-09T05:32:03;16.65;;;4.22;;
26407;SDS011;14583;43.604;1.364;2023-05-09T05:34:29;13.60;;;4.10;;
26407;SDS011;14583;43.604;1.364;2023-05-09T05:36:55;11.07;;;3.60;;
26407;SDS011;14583;43.604;1.364;2023-05-09T05:39:20;12.85;;;4.47;;
26407;SDS011;14583;43.604;1.364;2023-05-09T05:41:46;10.57;;;3.88;;
26407;SDS011;14583;43.604;1.364;2023-05-09T05:44:12;12.48;;;3.83;;
26407;SDS011;14583;43.604;1.364;2023-05-09T05:46:37;11.18;;;3.95;;
26407;SDS011;14583;43.604;1.364;2023-05-09T05:49:03;18.40;;;4.47;;
26407;SDS011;14583;43.604;1.364;2023-05-09T05:51:29;13.80;;;3.80;;
26407;SDS011;14583;43.604;1.364;2023-05-09T05:53:55;13.98;;;3.80;;
26407;SDS011;14583;43.604;1.364;2023-05-09T05:56:21;9.65;;;3.78;;
26407;SDS011;14583;43.604;1.364;2023-05-09T05:58:46;11.98;;;3.83;;
26407;SDS011;14583;43.604;1.364;2023-05-09T06:01:12;10.48;;;4.07;;
26407;SDS011;14583;43.604;1.364;2023-05-09T06:03:38;11.18;;;4.63;;
26407;SDS011;14583;43.604;1.364;2023-05-09T06:06:03;11.68;;;4.03;;
26407;SDS011;14583;43.604;1.364;2023-05-09T06:08:29;10.45;;;4.28;;
26407;SDS011;14583;43.604;1.364;2023-05-09T06:10:55;12.10;;;4.53;;
26407;SDS011;14583;43.604;1.364;2023-05-09T06:13:20;11.52;;;4.28;;
26407;SDS011;14583;43.604;1.364;2023-05-09T06:15:46;13.02;;;4.13;;
26407;SDS011;14583;43.604;1.364;2023-05-09T06:18:12;9.05;;;3.88;;
26407;SDS011;14583;43.604;1.364;2023-05-09T06:20:37;17.55;;;9.82;;
26407;SDS011;14583;43.604;1.364;2023-05-09T06:23:03;16.52;;;5.63;;
26407;SDS011;14583;43.604;1.364;2023-05-09T06:25:29;9.38;;;3.95;;
26407;SDS011;14583;43.604;1.364;2023-05-09T06:27:54;8.68;;;4.05;;
26407;SDS011;14583;43.604;1.364;2023-05-09T06:30:20;13.93;;;3.97;;
26407;SDS011;14583;43.604;1.364;2023-05-09T06:32:46;14.95;;;4.30;;
26407;SDS011;14583;43.604;1.364;2023-05-09T06:35:11;18.40;;;4.50;;
26407;SDS011;14583;43.604;1.364;2023-05-09T06:37:37;10.45;;;4.53;;
26407;SDS011;14583;43.604;1.364;2023-05-09T06:40:02;14.20;;;4.82;;
26407;SDS011;14583;43.604;1.364;2023-05-09T06:42:28;11.18;;;3.95;;
26407;SDS011;14583;43.604;1.364;2023-05-09T06:44:56;21.80;;;4.45;;
26407;SDS011;14583;43.604;1.364;2023-05-09T06:47:22;21.17;;;5.97;;
26407;SDS011;14583;43.604;1.364;2023-05-09T06:49:47;16.98;;;4.25;;
26407;SDS011;14583;43.604;1.364;2023-05-09T06:52:13;18.23;;;4.63;;
26407;SDS011;14583;43.604;1.364;2023-05-09T06:54:39;18.25;;;4.43;;
26407;SDS011;14583;43.604;1.364;2023-05-09T06:57:05;12.77;;;4.55;;
26407;SDS011;14583;43.604;1.364;2023-05-09T06:59:31;14.90;;;4.20;;
26407;SDS011;14583;43.604;1.364;2023-05-09T07:01:57;14.65;;;4.10;;
26407;SDS011;14583;43.604;1.364;2023-05-09T07:04:23;16.48;;;4.20;;
26407;SDS011;14583;43.604;1.364;2023-05-09T07:06:49;9.02;;;4.03;;
26407;SDS011;14583;43.604;1.364;2023-05-09T07:09:14;20.05;;;4.95;;
26407;SDS011;14583;43.604;1.364;2023-05-09T07:11:44;18.92;;;5.25;;
26407;SDS011;14583;43.604;1.364;2023-05-09T07:14:10;20.02;;;4.82;;
26407;SDS011;14583;43.604;1.364;2023-05-09T07:16:35;12.82;;;4.20;;
26407;SDS011;14583;43.604;1.364;2023-05-09T07:19:01;14.45;;;4.35;;
26407;SDS011;14583;43.604;1.364;2023-05-09T07:21:27;18.48;;;4.93;;
26407;SDS011;14583;43.604;1.364;2023-05-09T07:23:53;17.23;;;4.47;;
26407;SDS011;14583;43.604;1.364;2023-05-09T07:26:18;17.33;;;4.57;;
26407;SDS011;14583;43.604;1.364;2023-05-09T07:28:45;12.23;;;4.32;;
26407;SDS011;14583;43.604;1.364;2023-05-09T07:31:11;13.55;;;4.13;;
26407;SDS011;14583;43.604;1.364;2023-05-09T07:33:36;12.70;;;4.15;;
26407;SDS011;14583;43.604;1.364;2023-05-09T07:36:02;15.35;;;4.35;;
26407;SDS011;14583;43.604;1.364;2023-05-09T07:38:28;15.00;;;4.47;;
26407;SDS011;14583;43.604;1.364;2023-05-09T07:40:53;18.83;;;4.78;;
26407;SDS011;14583;43.604;1.364;2023-05-09T07:43:19;20.08;;;5.32;;
26407;SDS011;14583;43.604;1.364;2023-05-09T07:45:44;15.55;;;4.55;;
26407;SDS011;14583;43.604;1.364;2023-05-09T07:48:11;14.90;;;4.50;;
26407;SDS011;14583;43.604;1.364;2023-05-09T07:50:36;23.70;;;4.75;;
26407;SDS011;14583;43.604;1.364;2023-05-09T07:53:02;13.05;;;4.25;;
26407;SDS011;14583;43.604;1.364;2023-05-09T07:55:28;20.10;;;4.95;;
26407;SDS011;14583;43.604;1.364;2023-05-09T07:57:53;18.50;;;4.75;;
26407;SDS011;14583;43.604;1.364;2023-05-09T08:00:19;18.13;;;4.80;;
26407;SDS011;14583;43.604;1.364;2023-05-09T08:02:49;14.00;;;4.30;;
26407;SDS011;14583;43.604;1.364;2023-05-09T08:05:15;14.00;;;4.53;;
26407;SDS011;14583;43.604;1.364;2023-05-09T08:07:41;17.38;;;4.93;;
26407;SDS011;14583;43.604;1.364;2023-05-09T08:10:07;15.35;;;4.38;;
26407;SDS011;14583;43.604;1.364;2023-05-09T08:12:33;15.38;;;4.53;;
26407;SDS011;14583;43.604;1.364;2023-05-09T08:14:58;12.95;;;4.20;;
26407;SDS011;14583;43.604;1.364;2023-05-09T08:17:24;18.80;;;4.47;;
26407;SDS011;14583;43.604;1.364;2023-05-09T08:19:50;20.63;;;5.18;;
26407;SDS011;14583;43.604;1.364;2023-05-09T08:22:16;12.60;;;3.70;;
26407;SDS011;14583;43.604;1.364;2023-05-09T08:24:42;11.85;;;3.90;;
26407;SDS011;14583;43.604;1.364;2023-05-09T08:27:09;16.65;;;4.13;;
26407;SDS011;14583;43.604;1.364;2023-05-09T08:29:37;13.85;;;4.00;;
26407;SDS011;14583;43.604;1.364;2023-05-09T08:32:06;16.40;;;3.95;;
26407;SDS011;14583;43.604;1.364;2023-05-09T08:34:32;10.05;;;3.10;;
26407;SDS011;14583;43.604;1.364;2023-05-09T08:36:59;9.93;;;3.33;;
26407;SDS011;14583;43.604;1.364;2023-05-09T08:39:25;9.90;;;3.20;;
26407;SDS011;14583;43.604;1.364;2023-05-09T08:41:52;10.60;;;3.17;;
26407;SDS011;14583;43.604;1.364;2023-05-09T08:44:21;14.07;;;3.83;;
26407;SDS011;14583;43.604;1.364;2023-05-09T08:46:47;15.57;;;3.95;;
26407;SDS011;14583;43.604;1.364;2023-05-09T08:49:15;8.75;;;3.25;;
26407;SDS011;14583;43.604;1.364;2023-05-09T08:51:42;9.63;;;3.00;;
26407;SDS011;14583;43.604;1.364;2023-05-09T08:54:09;12.73;;;3.20;;
26407;SDS011;14583;43.604;1.364;2023-05-09T08:56:35;8.85;;;2.92;;
26407;SDS011;14583;43.604;1.364;2023-05-09T08:59:02;11.63;;;2.60;;
26407;SDS011;14583;43.604;1.364;2023-05-09T09:01:29;7.47;;;3.13;;
26407;SDS011;14583;43.604;1.364;2023-05-09T09:03:59;7.30;;;2.60;;
26407;SDS011;14583;43.604;1.364;2023-05-09T09:06:26;12.20;;;3.92;;
26407;SDS011;14583;43.604;1.364;2023-05-09T09:08:54;10.40;;;2.58;;
26407;SDS011;14583;43.604;1.364;2023-05-09T09:11:22;5.30;;;2.22;;
26407;SDS011;14583;43.604;1.364;2023-05-09T09:13:48;10.82;;;3.15;;
26407;SDS011;14583;43.604;1.364;2023-05-09T09:16:22;9.10;;;2.95;;
26407;SDS011;14583;43.604;1.364;2023-05-09T09:18:50;7.47;;;2.53;;
26407;SDS011;14583;43.604;1.364;2023-05-09T09:21:18;7.18;;;2.45;;
26407;SDS011;14583;43.604;1.364;2023-05-09T09:23:45;11.98;;;3.08;;
26407;SDS011;14583;43.604;1.364;2023-05-09T09:26:12;10.07;;;3.22;;
26407;SDS011;14583;43.604;1.364;2023-05-09T09:28:37;12.43;;;2.60;;
26407;SDS011;14583;43.604;1.364;2023-05-09T09:34:03;8.40;;;2.85;;
26407;SDS011;14583;43.604;1.364;2023-05-09T09:36:29;9.05;;;2.90;;
26407;SDS011;14583;43.604;1.364;2023-05-09T09:38:59;14.27;;;3.85;;
26407;SDS011;14583;43.604;1.364;2023-05-09T09:41:44;6.43;;;2.80;;
26407;SDS011;14583;43.604;1.364;2023-05-09T09:44:11;8.18;;;3.15;;
26407;SDS011;14583;43.604;1.364;2023-05-09T09:46:41;7.50;;;2.92;;
26407;SDS011;14583;43.604;1.364;2023-05-09T09:49:11;8.07;;;2.75;;
26407;SDS011;14583;43.604;1.364;2023-05-09T09:51:37;5.93;;;2.40;;
26407;SDS011;14583;43.604;1.364;2023-05-09T09:54:07;13.43;;;2.78;;
26407;SDS011;14583;43.604;1.364;2023-05-09T09:56:37;9.68;;;2.65;;
26407;SDS011;14583;43.604;1.364;2023-05-09T09:59:14;7.50;;;2.88;;
26407;SDS011;14583;43.604;1.364;2023-05-09T10:04:30;6.32;;;2.90;;
26407;SDS011;14583;43.604;1.364;2023-05-09T10:06:57;7.32;;;2.83;;
26407;SDS011;14583;43.604;1.364;2023-05-09T10:09:28;6.45;;;2.47;;
26407;SDS011;14583;43.604;1.364;2023-05-09T10:11:55;7.63;;;2.80;;
26407;SDS011;14583;43.604;1.364;2023-05-09T10:14:23;7.18;;;3.00;;
26407;SDS011;14583;43.604;1.364;2023-05-09T10:16:50;8.15;;;3.60;;
26407;SDS011;14583;43.604;1.364;2023-05-09T10:19:19;5.03;;;3.00;;
26407;SDS011;14583;43.604;1.364;2023-05-09T10:21:52;10.82;;;3.45;;
26407;SDS011;14583;43.604;1.364;2023-05-09T10:26:55;8.65;;;3.38;;
26407;SDS011;14583;43.604;1.364;2023-05-09T10:29:33;7.88;;;3.50;;
26407;SDS011;14583;43.604;1.364;2023-05-09T10:32:02;9.15;;;3.28;;
26407;SDS011;14583;43.604;1.364;2023-05-09T10:34:36;7.88;;;3.17;;
26407;SDS011;14583;43.604;1.364;2023-05-09T10:37:07;7.72;;;3.00;;
26407;SDS011;14583;43.604;1.364;2023-05-09T10:39:33;7.38;;;3.30;;
26407;SDS011;14583;43.604;1.364;2023-05-09T10:42:00;7.80;;;4.03;;
26407;SDS011;14583;43.604;1.364;2023-05-09T10:44:27;9.70;;;4.00;;
26407;SDS011;14583;43.604;1.364;2023-05-09T10:46:52;8.18;;;3.13;;
26407;SDS011;14583;43.604;1.364;2023-05-09T10:49:19;7.18;;;3.42;;
26407;SDS011;14583;43.604;1.364;2023-05-09T10:51:45;7.53;;;3.13;;
26407;SDS011;14583;43.604;1.364;2023-05-09T10:54:14;9.10;;;3.50;;
26407;SDS011;14583;43.604;1.364;2023-05-09T10:56:50;9.38;;;3.67;;
26407;SDS011;14583;43.604;1.364;2023-05-09T11:02:11;7.47;;;3.97;;
26407;SDS011;14583;43.604;1.364;2023-05-09T11:04:40;6.93;;;3.55;;
26407;SDS011;14583;43.604;1.364;2023-05-09T11:07:22;8.48;;;3.55;;
26407;SDS011;14583;43.604;1.364;2023-05-09T11:09:50;11.50;;;4.93;;
26407;SDS011;14583;43.604;1.364;2023-05-09T11:12:18;9.73;;;4.55;;
26407;SDS011;14583;43.604;1.364;2023-05-09T11:14:48;7.20;;;4.60;;
26407;SDS011;14583;43.604;1.364;2023-05-09T11:22:27;8.73;;;4.20;;
26407;SDS011;14583;43.604;1.364;2023-05-09T11:25:06;8.65;;;3.60;;
26407;SDS011;14583;43.604;1.364;2023-05-09T11:30:07;5.93;;;2.50;;
26407;SDS011;14583;43.604;1.364;2023-05-09T11:32:42;6.25;;;2.40;;
26407;SDS011;14583;43.604;1.364;2023-05-09T11:35:15;5.85;;;2.75;;
26407;SDS011;14583;43.604;1.364;2023-05-09T11:37:49;5.68;;;3.20;;
26407;SDS011;14583;43.604;1.364;2023-05-09T11:40:20;4.28;;;2.67;;
26407;SDS011;14583;43.604;1.364;2023-05-09T11:42:47;7.47;;;3.20;;
26407;SDS011;14583;43.604;1.364;2023-05-09T11:45:14;4.05;;;2.90;;
26407;SDS011;14583;43.604;1.364;2023-05-09T11:47:41;5.20;;;2.65;;
26407;SDS011;14583;43.604;1.364;2023-05-09T11:50:10;2.42;;;1.70;;
26407;SDS011;14583;43.604;1.364;2023-05-09T11:52:38;3.10;;;2.35;;
26407;SDS011;14583;43.604;1.364;2023-05-09T11:55:08;3.85;;;2.30;;
26407;SDS011;14583;43.604;1.364;2023-05-09T11:57:39;3.92;;;1.98;;
26407;SDS011;14583;43.604;1.364;2023-05-09T12:00:07;6.15;;;3.10;;
26407;SDS011;14583;43.604;1.364;2023-05-09T12:02:34;4.95;;;2.97;;
26407;SDS011;14583;43.604;1.364;2023-05-09T12:05:07;3.05;;;1.77;;
26407;SDS011;14583;43.604;1.364;2023-05-09T12:07:34;3.70;;;1.65;;
26407;SDS011;14583;43.604;1.364;2023-05-09T12:10:03;4.40;;;1.77;;
26407;SDS011;14583;43.604;1.364;2023-05-09T12:12:43;4.25;;;1.23;;
26407;SDS011;14583;43.604;1.364;2023-05-09T12:15:14;4.63;;;1.92;;
26407;SDS011;14583;43.604;1.364;2023-05-09T12:17:41;6.20;;;1.67;;
26407;SDS011;14583;43.604;1.364;2023-05-09T12:20:07;2.45;;;1.33;;
26407;SDS011;14583;43.604;1.364;2023-05-09T12:22:34;2.25;;;1.30;;
26407;SDS011;14583;43.604;1.364;2023-05-09T12:25:03;2.63;;;1.40;;
26407;SDS011;14583;43.604;1.364;2023-05-09T12:27:31;2.22;;;1.30;;
26407;SDS011;14583;43.604;1.364;2023-05-09T12:30:01;3.38;;;1.67;;
26407;SDS011;14583;43.604;1.364;2023-05-09T12:32:36;2.50;;;1.30;;
26407;SDS011;14583;43.604;1.364;2023-05-09T12:35:05;3.08;;;1.73;;
26407;SDS011;14583;43.604;1.364;2023-05-09T12:37:32;2.90;;;1.92;;
26407;SDS011;14583;43.604;1.364;2023-05-09T12:40:10;2.95;;;1.88;;
26407;SDS011;14583;43.604;1.364;2023-05-09T12:42:36;6.65;;;3.42;;
26407;SDS011;14583;43.604;1.364;2023-05-09T12:45:03;4.65;;;3.70;;
26407;SDS011;14583;43.604;1.364;2023-05-09T12:47:32;6.22;;;2.42;;
26407;SDS011;14583;43.604;1.364;2023-05-09T12:49:58;2.85;;;1.52;;
26407;SDS011;14583;43.604;1.364;2023-05-09T12:52:25;4.60;;;1.70;;
26407;SDS011;14583;43.604;1.364;2023-05-09T12:55:05;3.50;;;1.70;;
26407;SDS011;14583;43.604;1.364;2023-05-09T12:57:33;4.50;;;1.70;;
26407;SDS011;14583;43.604;1.364;2023-05-09T12:59:59;2.38;;;1.30;;
26407;SDS011;14583;43.604;1.364;2023-05-09T13:02:32;2.90;;;1.60;;
26407;SDS011;14583;43.604;1.364;2023-05-09T13:10:09;2.72;;;1.67;;
26407;SDS011;14583;43.604;1.364;2023-05-09T13:12:40;2.83;;;1.70;;
26407;SDS011;14583;43.604;1.364;2023-05-09T13:15:09;2.30;;;1.45;;
26407;SDS011;14583;43.604;1.364;2023-05-09T13:17:36;2.50;;;1.60;;
26407;SDS011;14583;43.604;1.364;2023-05-09T13:20:02;4.72;;;1.63;;
26407;SDS011;14583;43.604;1.364;2023-05-09T13:22:31;5.65;;;1.70;;
26407;SDS011;14583;43.604;1.364;2023-05-09T13:24:57;2.65;;;1.40;;
26407;SDS011;14583;43.604;1.364;2023-05-09T13:27:22;2.90;;;1.50;;
26407;SDS011;14583;43.604;1.364;2023-05-09T13:29:48;2.35;;;1.60;;
26407;SDS011;14583;43.604;1.364;2023-05-09T13:32:14;2.80;;;1.50;;
26407;SDS011;14583;43.604;1.364;2023-05-09T13:34:40;4.72;;;1.80;;
26407;SDS011;14583;43.604;1.364;2023-05-09T13:37:06;3.25;;;1.75;;
26407;SDS011;14583;43.604;1.364;2023-05-09T13:39:31;3.90;;;1.70;;
26407;SDS011;14583;43.604;1.364;2023-05-09T13:41:57;2.25;;;1.80;;
26407;SDS011;14583;43.604;1.364;2023-05-09T13:44:23;2.30;;;1.55;;
26407;SDS011;14583;43.604;1.364;2023-05-09T13:46:48;2.75;;;1.60;;
26407;SDS011;14583;43.604;1.364;2023-05-09T13:49:14;4.38;;;1.67;;
26407;SDS011;14583;43.604;1.364;2023-05-09T13:51:40;2.78;;;1.90;;
26407;SDS011;14583;43.604;1.364;2023-05-09T13:54:06;3.63;;;1.70;;
26407;SDS011;14583;43.604;1.364;2023-05-09T13:56:40;1.88;;;1.42;;
26407;SDS011;14583;43.604;1.364;2023-05-09T13:59:06;1.58;;;1.30;;
26407;SDS011;14583;43.604;1.364;2023-05-09T14:01:32;5.00;;;1.60;;
26407;SDS011;14583;43.604;1.364;2023-05-09T14:03:59;2.15;;;1.50;;
26407;SDS011;14583;43.604;1.364;2023-05-09T14:06:24;3.47;;;1.50;;
26407;SDS011;14583;43.604;1.364;2023-05-09T14:08:50;4.32;;;1.55;;
26407;SDS011;14583;43.604;1.364;2023-05-09T14:11:16;3.80;;;1.77;;
26407;SDS011;14583;43.604;1.364;2023-05-09T14:13:41;5.78;;;2.00;;
26407;SDS011;14583;43.604;1.364;2023-05-09T14:16:07;3.63;;;1.73;;
26407;SDS011;14583;43.604;1.364;2023-05-09T14:18:33;5.63;;;1.65;;
26407;SDS011;14583;43.604;1.364;2023-05-09T14:20:59;2.05;;;1.65;;
26407;SDS011;14583;43.604;1.364;2023-05-09T14:23:25;3.85;;;1.38;;
26407;SDS011;14583;43.604;1.364;2023-05-09T14:25:51;2.58;;;1.60;;
26407;SDS011;14583;43.604;1.364;2023-05-09T14:28:16;3.17;;;1.58;;
26407;SDS011;14583;43.604;1.364;2023-05-09T14:30:42;2.05;;;1.58;;
26407;SDS011;14583;43.604;1.364;2023-05-09T14:33:08;5.43;;;1.50;;
26407;SDS011;14583;43.604;1.364;2023-05-09T14:35:34;1.80;;;1.30;;
26407;SDS011;14583;43.604;1.364;2023-05-09T14:37:59;3.85;;;1.90;;
26407;SDS011;14583;43.604;1.364;2023-05-09T14:40:25;1.98;;;1.77;;
26407;SDS011;14583;43.604;1.364;2023-05-09T14:42:57;4.22;;;1.63;;
26407;SDS011;14583;43.604;1.364;2023-05-09T14:45:26;2.28;;;1.83;;
26407;SDS011;14583;43.604;1.364;2023-05-09T14:47:52;2.95;;;1.75;;
26407;SDS011;14583;43.604;1.364;2023-05-09T14:50:18;4.05;;;1.70;;
26407;SDS011;14583;43.604;1.364;2023-05-09T14:52:45;3.35;;;1.67;;
26407;SDS011;14583;43.604;1.364;2023-05-09T14:55:11;2.05;;;1.50;;
26407;SDS011;14583;43.604;1.364;2023-05-09T14:57:37;2.28;;;1.40;;
26407;SDS011;14583;43.604;1.364;2023-05-09T15:00:03;1.85;;;1.33;;
26407;SDS011;14583;43.604;1.364;2023-05-09T15:02:29;3.15;;;1.75;;
26407;SDS011;14583;43.604;1.364;2023-05-09T15:04:55;7.50;;;2.00;;
26407;SDS011;14583;43.604;1.364;2023-05-09T15:07:21;1.52;;;1.40;;
26407;SDS011;14583;43.604;1.364;2023-05-09T15:09:46;1.90;;;1.23;;
26407;SDS011;14583;43.604;1.364;2023-05-09T15:12:12;1.85;;;1.48;;